x

Lake Simcoe (45151) Wave Buoy

9:00pm - Tue 2nd Sep 2014 All times are CDT. -5 hours from GMT.

  • Sig Wave height 0.3ft
  • Peak Period 2s
  • Wind
    13mph, 16mph gusts
  • Sea Temp 69°f
  • Air Temp 67°f
  • Sea Pressure 1011.3mb
  • Lake Simcoe
  • Lake Simcoe

More Historic Weather Station data

Upgrade to MSW Pro to gain access to the past 30 days of data for over 8000 Wavebouys and Weather Stations around the globe.

Join Pro

Comparision Forecast

View Surf forecast
   
Tue 09/02 9:00pm 0.3ft 2s 13 16 mph 1011.3mb 69f 67f
8:00pm 0.3ft 2s 11 13 mph 1010.7mb 69f 67f
7:00pm 0.3ft 3s 11 13 mph 1010.1mb 69f 68f
6:00pm  -  3s 9 11 mph 1010.1mb 70f 69f
5:00pm  -  2s 7 9 mph 1009.4mb 69f 69f
4:00pm  -  2s 7 9 mph 1009.2mb 69f 69f
3:00pm  -  3s 4
mph
1008.9mb 69f 68f
2:00pm  -  2s 4 7 mph 1009.3mb 70f 68f
1:00pm  -  2s 2
mph
1009.3mb 70f 68f
12:00pm 0.3ft 2s 2
mph
1009.8mb 70f 69f
11:00am 0.3ft 2s 4 7 mph 1010mb 70f 70f
10:00am 0.3ft 2s 9 13 mph 1010.7mb 70f 71f
9:00am 0.3ft 2s 4
mph
1010mb 70f 71f
8:00am 0.7ft 2s 2 4 mph 1009.8mb 69f 71f
7:00am 0.3ft 2s 9
mph
1010.3mb 69f 69f
6:00am 0.7ft 2s 7 9 mph 1009.3mb 69f 69f
5:00am 0.7ft 2s 9 11 mph 1009.3mb 69f 69f
4:00am 0.7ft 2s 11 13 mph 1008.4mb 69f 69f
3:00am 0.3ft 2s 7 9 mph 1008.1mb 69f 70f
2:00am 0.7ft 2s 7 9 mph 1007.9mb 69f 71f
1:00am 0.7ft 3s 4 7 mph 1007.7mb 69f 71f
12:00am 1ft 3s 4
mph
1007.8mb 69f 71f
Mon 09/01 11:00pm 1ft 3s 11 13 mph 1007.9mb 69f 72f
10:00pm 1.3ft 3s 9 11 mph 1007.8mb 70f 72f
9:00pm 1.3ft 3s 13 16 mph 1008mb 69f 72f
8:00pm 1.3ft 3s 13 16 mph 1008.8mb 69f 73f
7:00pm 1.3ft 3s 13
mph
1009.1mb 70f 72f
6:00pm 1.3ft 3s 13
mph
1009mb 70f 72f
5:00pm 0.7ft 2s 16 18 mph 1008.6mb 70f 73f
4:00pm 0.3ft 2s 4 9 mph 1009.3mb 70f 73f
3:00pm 0.7ft 2s 7 9 mph 1009.8mb 69f 71f
2:00pm 0.7ft 2s 9 11 mph 1010.7mb 69f 70f
1:00pm 1ft 3s 9 11 mph 1012mb 69f 71f
12:00pm 1ft 3s 7 9 mph 1012.3mb 69f 71f
11:00am 1ft 2s 11 13 mph 1012.9mb 69f 70f
10:00am 0.7ft 2s 7 9 mph 1013.4mb 69f 69f
9:00am 0.7ft 2s 9 11 mph 1013.7mb 69f 68f
8:00am 0.7ft 2s 11 13 mph 1013.9mb 69f 66f
7:00am 0.7ft 2s 11 13 mph 1014.5mb 69f 65f
6:00am 0.3ft 2s 11
mph
1014.5mb 69f 65f
5:00am 0.3ft 2s 7 9 mph 1014.7mb 69f 66f
4:00am 0.3ft 2s 4 7 mph 1015mb 69f 65f
3:00am  -  2s 9
mph
1015mb 69f 65f
2:00am  -  2s 2 4 mph 1014.8mb 69f 65f
1:00am  -  2s 2 4 mph 1014.6mb 69f 66f
12:00am  -  2s 2 4 mph 1014.4mb 69f 66f
Sun 08/31 11:00pm  -  3s 4 7 mph 1014.4mb 69f 66f
10:00pm 0.3ft 2s 4
mph
1014.8mb 69f 66f
9:00pm 0.3ft 2s 7 9 mph 1014.6mb 69f 67f
8:00pm 0.3ft 2s 7 9 mph 1014.5mb 69f 68f
7:00pm 0.7ft 2s 11 13 mph 1013.9mb 70f 69f
6:00pm 0.7ft 2s 9 13 mph 1013.6mb 70f 71f
5:00pm 0.7ft 2s 13 16 mph 1013mb 70f 73f
4:00pm 0.7ft 2s 9 11 mph 1012.5mb 70f 73f
3:00pm 0.7ft 2s 9
mph
1012.4mb 70f 74f
2:00pm 0.3ft 2s 11 16 mph 1012.4mb 70f 75f
1:00pm 0.7ft 3s 7 9 mph 1012.6mb 69f 73f
12:00pm 1ft 3s 7 9 mph 1012.5mb 69f 72f
11:00am 1ft 3s 11 13 mph 1012.3mb 69f 73f
10:00am 1ft 2s 11 16 mph 1012.3mb 69f 73f
9:00am 0.7ft 2s 11 16 mph 1012.3mb 69f 72f
8:00am 0.7ft 2s 9
mph
1012.4mb 69f 71f
7:00am 0.7ft 2s 9 11 mph 1012.1mb 69f 70f
6:00am 0.3ft 2s 11
mph
1011.8mb 69f 71f
5:00am 0.3ft 2s 9
mph
1011.4mb 69f 70f
4:00am 0.7ft 2s 9
mph
1011.1mb 69f 71f
3:00am 0.7ft 2s 9 11 mph 1011.3mb 69f 71f
2:00am 1ft 2s 9 11 mph 1011.1mb 69f 72f
1:00am 0.7ft 2s 11 13 mph 1011.4mb 69f 72f
12:00am 0.7ft 2s 11 13 mph 1011.3mb 69f 73f
Sat 08/30 11:00pm 0.7ft 3s 11
mph
1011mb 69f 73f
10:00pm 1ft 3s 9
mph
1011.4mb 69f 73f
9:00pm 1ft 3s 13 16 mph 1011.5mb 69f 74f
8:00pm 1.3ft 3s 11 13 mph 1011.5mb 69f 74f
7:00pm 1.3ft 3s 11
mph
1011.2mb 69f 73f
6:00pm 1.6ft 3s 16 20 mph 1011.1mb 69f 75f
5:00pm 1.6ft 3s 13
mph
1011.4mb 69f 74f
4:00pm 1.6ft 3s 18 20 mph 1011.6mb 70f 75f
3:00pm 1.3ft 3s 16 18 mph 1012.1mb 70f 75f
2:00pm 0.7ft 2s 9
mph
1013.2mb 70f 74f
1:00pm 0.7ft 2s 4 7 mph 1014.1mb 70f 74f
12:00pm 1ft 3s 7 9 mph 1014.5mb 69f 72f
11:00am 1.3ft 3s 11 13 mph 1015.1mb 69f 71f
10:00am 1.3ft 3s 9 13 mph 1015.6mb 69f 70f
9:00am 1.3ft 3s 13 16 mph 1016mb 69f 69f
8:00am 1.3ft 3s 16 18 mph 1016.3mb 69f 67f
7:00am 1ft 3s 13 18 mph 1016.8mb 69f 66f
6:00am 1ft 3s 13 16 mph 1016.9mb 69f 66f
5:00am 1ft 3s 11 13 mph 1016.7mb 69f 66f
4:00am 1ft 3s 13
mph
1017.1mb 69f 65f